createdAt,value
2017-03-31T00:00:07.345Z,78.40
2017-03-31T00:01:02.384Z,78.40
2017-03-31T00:02:03.398Z,78.40
2017-03-31T00:03:03.439Z,78.40
2017-03-31T00:03:58.442Z,78.45
2017-03-31T00:04:53.486Z,78.51
2017-03-31T00:05:47.530Z,78.63
2017-03-31T00:06:41.573Z,78.78
2017-03-31T00:07:41.630Z,78.85
2017-03-31T00:08:30.735Z,78.81
2017-03-31T00:09:19.684Z,78.73
2017-03-31T00:10:07.689Z,78.81
2017-03-31T00:10:56.813Z,78.80
2017-03-31T00:11:45.808Z,78.87
2017-03-31T00:12:34.855Z,78.95
2017-03-31T00:13:23.928Z,78.97
2017-03-31T00:14:12.078Z,78.98
2017-03-31T00:14:59.993Z,79.02
2017-03-31T00:15:47.969Z,79.15
2017-03-31T00:16:36.079Z,79.23
2017-03-31T00:17:25.134Z,79.31
2017-03-31T00:18:19.107Z,79.38
2017-03-31T00:19:14.196Z,79.46
2017-03-31T00:20:08.223Z,79.40
2017-03-31T00:21:08.294Z,79.41
2017-03-31T00:22:03.326Z,79.31
2017-03-31T00:22:58.344Z,79.27
2017-03-31T00:23:59.383Z,79.26
2017-03-31T00:24:59.451Z,79.28
2017-03-31T00:25:59.414Z,79.35
2017-03-31T00:26:54.439Z,79.45
2017-03-31T00:27:48.671Z,79.52
2017-03-31T00:28:49.594Z,79.54
2017-03-31T00:29:49.531Z,79.54
2017-03-31T00:30:49.583Z,79.55
2017-03-31T00:31:43.624Z,79.39
2017-03-31T00:32:38.675Z,79.23
2017-03-31T00:33:39.694Z,79.15
2017-03-31T00:34:39.707Z,79.03
2017-03-31T00:35:39.793Z,78.94
2017-03-31T00:36:34.793Z,78.89
2017-03-31T00:37:28.868Z,78.91
2017-03-31T00:38:17.896Z,78.93
2017-03-31T00:39:06.938Z,78.93
2017-03-31T00:39:55.951Z,78.92
2017-03-31T00:40:44.040Z,78.99
2017-03-31T00:41:32.120Z,79.09
2017-03-31T00:42:21.228Z,79.11
2017-03-31T00:43:16.084Z,79.09
2017-03-31T00:44:10.273Z,79.10
2017-03-31T00:45:10.210Z,79.09
2017-03-31T00:46:05.220Z,79.03
2017-03-31T00:47:05.303Z,79.00
2017-03-31T00:48:05.264Z,78.98
2017-03-31T00:49:05.304Z,78.90
2017-03-31T00:49:53.377Z,78.87
2017-03-31T00:50:53.407Z,78.82
2017-03-31T00:51:41.477Z,78.79
2017-03-31T00:52:41.484Z,78.84
2017-03-31T00:53:30.480Z,78.84
2017-03-31T00:54:18.563Z,78.86
2017-03-31T00:55:07.619Z,78.98
2017-03-31T00:56:01.614Z,78.98
2017-03-31T00:56:49.703Z,78.95
2017-03-31T00:57:37.704Z,79.02
2017-03-31T00:58:25.785Z,79.05
2017-03-31T00:59:26.918Z,79.03
2017-03-31T01:00:14.778Z,79.00
2017-03-31T01:01:03.869Z,79.04
2017-03-31T01:01:51.932Z,79.09
2017-03-31T01:02:39.930Z,79.13
2017-03-31T01:03:28.999Z,79.17
2017-03-31T01:04:17.013Z,79.19
2017-03-31T01:05:05.110Z,79.25
2017-03-31T01:05:54.064Z,79.24
2017-03-31T01:06:54.155Z,79.27
2017-03-31T01:07:54.148Z,79.12
2017-03-31T01:08:55.177Z,79.01
2017-03-31T01:09:50.276Z,78.77
2017-03-31T01:10:44.287Z,78.70
2017-03-31T01:11:44.359Z,78.60
2017-03-31T01:12:39.392Z,78.62
2017-03-31T01:13:39.409Z,78.63
2017-03-31T01:14:33.405Z,78.66
2017-03-31T01:15:33.465Z,78.73
2017-03-31T01:16:28.590Z,78.82
2017-03-31T01:17:23.566Z,78.85
2017-03-31T01:18:23.813Z,78.95
2017-03-31T01:19:18.591Z,79.04
2017-03-31T01:20:13.921Z,79.16
2017-03-31T01:21:07.716Z,79.14
2017-03-31T01:22:02.690Z,79.14
2017-03-31T01:22:56.737Z,79.19
2017-03-31T01:23:56.803Z,79.28
2017-03-31T01:24:52.401Z,79.30
2017-03-31T01:25:46.989Z,79.12
2017-03-31T01:26:46.875Z,78.73
2017-03-31T01:27:41.927Z,78.76
2017-03-31T01:28:35.970Z,78.85
2017-03-31T01:29:35.948Z,78.82
2017-03-31T01:30:35.998Z,78.77
2017-03-31T01:31:31.106Z,78.69
2017-03-31T01:32:26.186Z,78.62
2017-03-31T01:33:26.259Z,78.59
2017-03-31T01:34:21.196Z,78.58
2017-03-31T01:35:21.177Z,78.73
2017-03-31T01:36:21.192Z,78.72
2017-03-31T01:37:21.229Z,78.61
2017-03-31T01:38:15.261Z,78.48
2017-03-31T01:39:10.370Z,78.43
2017-03-31T01:40:11.294Z,78.43
2017-03-31T01:41:05.371Z,78.39
2017-03-31T01:42:05.415Z,78.28
2017-03-31T01:43:00.424Z,78.23
2017-03-31T01:44:06.478Z,78.19
2017-03-31T01:45:01.491Z,78.23
2017-03-31T01:45:55.504Z,78.33
2017-03-31T01:46:55.603Z,78.39
2017-03-31T01:47:55.528Z,78.47
2017-03-31T01:48:50.678Z,78.51
2017-03-31T01:49:50.655Z,78.59
2017-03-31T01:50:50.770Z,78.73
2017-03-31T01:51:44.851Z,78.87
2017-03-31T01:52:44.783Z,78.96
2017-03-31T01:53:39.778Z,79.02
2017-03-31T01:54:34.856Z,79.16
2017-03-31T01:55:35.879Z,79.28
2017-03-31T01:56:36.931Z,79.33
2017-03-31T01:57:31.939Z,79.34
2017-03-31T01:58:26.003Z,79.30
2017-03-31T01:59:26.051Z,79.28
2017-03-31T02:00:26.069Z,79.25
2017-03-31T02:01:21.085Z,79.23
2017-03-31T02:02:15.131Z,79.26
2017-03-31T02:03:15.145Z,79.25
2017-03-31T02:04:10.196Z,79.30
2017-03-31T02:05:05.307Z,79.20
2017-03-31T02:06:11.279Z,79.23
2017-03-31T02:07:05.315Z,79.26
2017-03-31T02:08:05.412Z,79.22
2017-03-31T02:09:00.328Z,79.09
2017-03-31T02:10:00.376Z,79.02
2017-03-31T02:10:54.391Z,79.04
2017-03-31T02:11:54.493Z,78.99
2017-03-31T02:12:49.528Z,79.06
2017-03-31T02:13:44.575Z,79.05
2017-03-31T02:14:44.584Z,78.97
2017-03-31T02:15:38.623Z,78.92
2017-03-31T02:16:39.647Z,78.92
2017-03-31T02:17:39.635Z,78.90
2017-03-31T02:18:39.725Z,78.83
2017-03-31T02:19:33.811Z,78.83
2017-03-31T02:20:33.769Z,78.80
2017-03-31T02:21:28.827Z,78.75
2017-03-31T02:22:23.860Z,78.70
2017-03-31T02:23:23.964Z,78.68
2017-03-31T02:24:18.887Z,78.68
2017-03-31T02:25:13.017Z,78.73
2017-03-31T02:26:13.015Z,78.66
2017-03-31T02:27:12.988Z,78.63
2017-03-31T02:28:08.019Z,78.63
2017-03-31T02:29:03.088Z,78.63
2017-03-31T02:30:04.109Z,78.63
2017-03-31T02:31:04.287Z,78.62
2017-03-31T02:32:04.154Z,78.62
2017-03-31T02:33:04.195Z,78.62
2017-03-31T02:34:05.236Z,78.59
2017-03-31T02:35:06.282Z,78.67
2017-03-31T02:36:00.296Z,78.70
2017-03-31T02:37:00.343Z,78.74
2017-03-31T02:37:55.376Z,78.86
2017-03-31T02:38:50.373Z,78.90
2017-03-31T02:39:50.434Z,79.01
2017-03-31T02:40:45.491Z,79.10
2017-03-31T02:41:33.503Z,79.20
2017-03-31T02:42:29.903Z,79.29
2017-03-31T02:43:16.586Z,79.31
2017-03-31T02:44:10.632Z,79.43
2017-03-31T02:44:59.626Z,79.50
2017-03-31T02:45:47.709Z,79.58
2017-03-31T02:46:35.693Z,79.67
2017-03-31T02:47:23.969Z,79.74
2017-03-31T02:48:17.827Z,79.85
2017-03-31T02:49:06.889Z,79.93
2017-03-31T02:49:54.884Z,79.97
2017-03-31T02:50:42.987Z,80.04
2017-03-31T02:51:32.012Z,80.06
2017-03-31T02:52:19.974Z,80.11
2017-03-31T02:53:09.160Z,80.14
2017-03-31T02:54:09.130Z,80.16
2017-03-31T02:55:03.129Z,80.15
2017-03-31T02:56:03.183Z,80.21
2017-03-31T02:56:58.207Z,80.30
2017-03-31T02:57:53.263Z,80.39
2017-03-31T02:58:53.312Z,80.51
2017-03-31T02:59:48.626Z,80.58
2017-03-31T03:00:43.460Z,80.69
2017-03-31T03:01:44.388Z,80.67
2017-03-31T03:02:44.414Z,80.73
2017-03-31T03:03:39.471Z,80.82
2017-03-31T03:04:39.466Z,80.88
2017-03-31T03:05:33.511Z,81.01
2017-03-31T03:06:33.557Z,81.07
2017-03-31T03:07:22.600Z,81.02
2017-03-31T03:08:10.671Z,81.04
2017-03-31T03:08:59.701Z,81.02
2017-03-31T03:09:47.678Z,81.01
2017-03-31T03:10:35.719Z,81.01
2017-03-31T03:11:24.780Z,81.10
2017-03-31T03:12:12.853Z,81.17
2017-03-31T03:13:00.897Z,81.24
2017-03-31T03:13:49.959Z,81.29
2017-03-31T03:14:37.995Z,81.29
2017-03-31T03:15:26.020Z,81.29
2017-03-31T03:16:14.108Z,81.32
2017-03-31T03:17:03.095Z,81.31
2017-03-31T03:17:51.173Z,81.38
2017-03-31T03:18:40.179Z,81.37
2017-03-31T03:19:28.208Z,81.46
2017-03-31T03:20:16.262Z,81.56
2017-03-31T03:21:05.561Z,81.58
2017-03-31T03:21:53.391Z,81.60
2017-03-31T03:22:41.363Z,81.62
2017-03-31T03:23:29.436Z,81.74
2017-03-31T03:24:18.476Z,81.73
2017-03-31T03:25:06.876Z,81.76
2017-03-31T03:26:06.512Z,81.89
2017-03-31T03:26:55.595Z,81.94
2017-03-31T03:27:43.587Z,81.87
2017-03-31T03:28:31.629Z,81.84
2017-03-31T03:29:19.698Z,81.80
2017-03-31T03:30:07.762Z,81.81
2017-03-31T03:30:55.767Z,81.81
2017-03-31T03:31:43.810Z,81.82
2017-03-31T03:32:32.941Z,81.85
2017-03-31T03:33:20.904Z,81.81
2017-03-31T03:34:08.959Z,81.72
2017-03-31T03:34:57.966Z,81.67
2017-03-31T03:35:45.990Z,81.60
2017-03-31T03:36:34.101Z,81.54
2017-03-31T03:37:23.061Z,81.50
2017-03-31T03:38:11.145Z,81.45
2017-03-31T03:38:59.197Z,81.31
2017-03-31T03:39:47.293Z,81.32
2017-03-31T03:40:36.308Z,81.22
2017-03-31T03:41:24.428Z,81.18
2017-03-31T03:42:13.357Z,81.16
2017-03-31T03:43:01.364Z,81.08
2017-03-31T03:43:49.427Z,81.06
2017-03-31T03:44:49.479Z,80.93
2017-03-31T03:45:44.503Z,80.85
2017-03-31T03:46:45.582Z,80.72
2017-03-31T03:47:40.533Z,80.43
2017-03-31T03:48:41.617Z,80.22
2017-03-31T03:49:36.000Z,80.14
2017-03-31T03:50:35.712Z,80.13
2017-03-31T03:51:30.683Z,80.11
2017-03-31T03:52:18.788Z,80.09
2017-03-31T03:53:06.818Z,80.04
2017-03-31T03:53:54.863Z,80.03
2017-03-31T03:54:48.881Z,80.03
2017-03-31T03:55:37.910Z,80.08
2017-03-31T03:56:26.363Z,80.05
2017-03-31T03:57:14.016Z,80.03
2017-03-31T03:58:02.045Z,80.00
2017-03-31T03:58:51.114Z,79.99
2017-03-31T03:59:39.347Z,80.03
2017-03-31T04:00:33.228Z,80.11
2017-03-31T04:01:33.204Z,80.15
2017-03-31T04:02:33.270Z,80.18
2017-03-31T04:03:28.297Z,80.09
2017-03-31T04:04:22.295Z,80.06
2017-03-31T04:05:22.414Z,80.01
2017-03-31T04:06:17.460Z,79.97
2017-03-31T04:07:05.420Z,79.96
2017-03-31T04:08:05.454Z,79.89
2017-03-31T04:09:11.452Z,79.84
2017-03-31T04:10:06.802Z,79.72
2017-03-31T04:10:54.485Z,79.66
2017-03-31T04:11:49.588Z,79.62
2017-03-31T04:12:49.557Z,79.59
2017-03-31T04:13:49.624Z,79.50
2017-03-31T04:14:43.879Z,79.43
2017-03-31T04:15:43.965Z,79.39
2017-03-31T04:16:38.772Z,79.30
2017-03-31T04:17:33.078Z,79.21
2017-03-31T04:18:26.836Z,79.23
2017-03-31T04:19:27.793Z,79.29
2017-03-31T04:20:28.840Z,79.37
2017-03-31T04:21:22.896Z,79.35
2017-03-31T04:22:22.933Z,79.40
2017-03-31T04:23:18.028Z,79.42
2017-03-31T04:24:17.996Z,79.49
2017-03-31T04:25:18.026Z,79.46
2017-03-31T04:26:18.092Z,79.45
2017-03-31T04:27:12.093Z,79.40
2017-03-31T04:28:12.223Z,79.42
2017-03-31T04:29:07.270Z,79.08
2017-03-31T04:30:01.224Z,78.83
2017-03-31T04:31:01.279Z,78.79
2017-03-31T04:31:50.293Z,78.75
2017-03-31T04:32:50.338Z,78.72
2017-03-31T04:33:44.309Z,78.72
2017-03-31T04:34:44.779Z,78.74
2017-03-31T04:35:39.404Z,78.81
2017-03-31T04:36:34.464Z,78.89
2017-03-31T04:37:34.484Z,78.99
2017-03-31T04:38:23.508Z,79.08
2017-03-31T04:39:11.608Z,79.20
2017-03-31T04:40:12.670Z,79.21
2017-03-31T04:41:12.616Z,79.27
2017-03-31T04:42:12.649Z,79.34
2017-03-31T04:43:06.703Z,79.38
2017-03-31T04:44:07.741Z,79.37
2017-03-31T04:45:01.764Z,79.33
2017-03-31T04:45:56.809Z,79.28
2017-03-31T04:46:57.820Z,79.32
2017-03-31T04:47:58.893Z,79.30
2017-03-31T04:48:46.974Z,79.30
2017-03-31T04:49:34.930Z,79.32
2017-03-31T04:50:23.993Z,79.36
2017-03-31T04:51:18.630Z,79.47
2017-03-31T04:52:12.139Z,79.54
2017-03-31T04:53:12.128Z,79.61
2017-03-31T04:54:06.139Z,79.73
2017-03-31T04:55:00.181Z,79.80
2017-03-31T04:55:48.588Z,79.78
2017-03-31T04:56:36.745Z,79.80
2017-03-31T04:57:25.289Z,79.79
2017-03-31T04:58:13.347Z,79.81
2017-03-31T04:59:01.389Z,79.88
2017-03-31T04:59:50.877Z,80.08
2017-03-31T05:00:38.458Z,80.14
2017-03-31T05:01:26.461Z,80.24
2017-03-31T05:02:14.559Z,80.28
2017-03-31T05:03:03.594Z,80.30
2017-03-31T05:03:51.856Z,80.39
2017-03-31T05:04:40.658Z,80.51
2017-03-31T05:05:28.737Z,80.51
2017-03-31T05:06:17.741Z,80.54
2017-03-31T05:07:05.803Z,80.53
2017-03-31T05:07:53.818Z,80.51
2017-03-31T05:08:49.230Z,80.56
2017-03-31T05:09:43.907Z,80.56
2017-03-31T05:10:38.949Z,80.58
2017-03-31T05:11:27.971Z,80.54
2017-03-31T05:12:23.306Z,80.56
2017-03-31T05:13:12.302Z,80.52
2017-03-31T05:14:07.148Z,80.47
2017-03-31T05:14:55.111Z,80.43
2017-03-31T05:15:43.208Z,80.43
2017-03-31T05:16:32.318Z,80.41
2017-03-31T05:17:20.327Z,80.39
2017-03-31T05:18:09.297Z,80.40
2017-03-31T05:18:57.380Z,80.38
2017-03-31T05:19:45.393Z,80.34
2017-03-31T05:20:34.449Z,80.35
2017-03-31T05:21:22.844Z,80.34
2017-03-31T05:22:10.518Z,80.30
2017-03-31T05:22:58.557Z,80.39
2017-03-31T05:23:47.593Z,80.40
2017-03-31T05:24:35.664Z,80.43
2017-03-31T05:25:25.466Z,80.41
2017-03-31T05:26:12.746Z,80.39
2017-03-31T05:27:00.858Z,80.37
2017-03-31T05:27:49.879Z,80.38
2017-03-31T05:28:37.910Z,80.34
2017-03-31T05:29:26.337Z,80.35
2017-03-31T05:30:15.123Z,80.33
2017-03-31T05:31:03.003Z,80.34
2017-03-31T05:31:52.008Z,80.29
2017-03-31T05:32:46.065Z,80.25
2017-03-31T05:33:35.113Z,80.25
2017-03-31T05:34:23.147Z,80.19
2017-03-31T05:35:23.187Z,80.09
2017-03-31T05:36:17.447Z,80.02
2017-03-31T05:37:17.245Z,79.95
2017-03-31T05:38:12.288Z,80.08
2017-03-31T05:39:07.351Z,80.12
2017-03-31T05:40:07.382Z,80.21
2017-03-31T05:41:02.648Z,80.35
2017-03-31T05:41:57.959Z,80.42
2017-03-31T05:42:51.500Z,80.34
2017-03-31T05:43:52.482Z,80.40
2017-03-31T05:44:47.569Z,80.14
2017-03-31T05:45:47.579Z,80.03
2017-03-31T05:46:48.147Z,80.01
2017-03-31T05:47:47.681Z,79.74
2017-03-31T05:48:42.715Z,79.58
2017-03-31T05:49:42.693Z,79.36
2017-03-31T05:50:37.755Z,79.24
2017-03-31T05:51:33.154Z,79.04
2017-03-31T05:52:32.873Z,78.93
2017-03-31T05:53:28.209Z,78.70
2017-03-31T05:54:21.890Z,78.57
2017-03-31T05:55:15.951Z,78.50
2017-03-31T05:56:11.155Z,78.26
2017-03-31T05:57:05.022Z,77.79
2017-03-31T05:58:05.088Z,77.99
2017-03-31T05:58:59.420Z,77.92
2017-03-31T05:59:59.467Z,77.73
2017-03-31T06:00:54.269Z,77.35
2017-03-31T06:01:49.431Z,76.70
2017-03-31T06:02:49.787Z,76.35
2017-03-31T06:03:43.800Z,76.28
2017-03-31T06:04:32.501Z,76.27
2017-03-31T06:05:20.342Z,76.01
2017-03-31T06:06:08.366Z,75.70
2017-03-31T06:07:08.391Z,75.16
2017-03-31T06:07:57.457Z,75.08
2017-03-31T06:08:52.745Z,75.17
2017-03-31T06:09:40.501Z,75.23
2017-03-31T06:10:34.557Z,75.05
2017-03-31T06:11:34.649Z,75.12
2017-03-31T06:12:23.638Z,75.14
2017-03-31T06:13:23.763Z,74.67
2017-03-31T06:14:23.748Z,74.50
2017-03-31T06:15:23.826Z,73.86
2017-03-31T06:16:18.806Z,73.54
2017-03-31T06:17:13.867Z,73.15
2017-03-31T06:18:08.280Z,73.04
2017-03-31T06:19:07.905Z,72.70
2017-03-31T06:20:03.458Z,72.33
2017-03-31T06:20:56.993Z,72.79
2017-03-31T06:21:52.105Z,72.87
2017-03-31T06:22:47.152Z,72.76
2017-03-31T06:23:41.067Z,71.74
2017-03-31T06:24:35.480Z,72.05
2017-03-31T06:25:29.219Z,71.91
2017-03-31T06:26:24.226Z,71.31
2017-03-31T06:27:18.259Z,71.93
2017-03-31T06:28:13.282Z,70.01
2017-03-31T06:29:02.398Z,70.36
2017-03-31T06:29:56.398Z,70.18
2017-03-31T06:30:56.436Z,69.38
2017-03-31T06:31:50.490Z,70.08
2017-03-31T06:32:51.503Z,69.85
2017-03-31T06:33:45.586Z,69.81
2017-03-31T06:34:39.581Z,69.24
2017-03-31T06:35:34.843Z,69.96
2017-03-31T06:36:28.781Z,70.13
2017-03-31T06:37:23.718Z,69.04
2017-03-31T06:38:23.804Z,68.92
2017-03-31T06:39:18.801Z,69.67
2017-03-31T06:40:12.869Z,68.94
2017-03-31T06:41:12.872Z,68.82
2017-03-31T06:42:07.293Z,69.32
2017-03-31T06:43:07.286Z,69.62
2017-03-31T06:44:02.018Z,69.73
2017-03-31T06:44:51.085Z,70.05
2017-03-31T06:45:51.067Z,69.65
2017-03-31T06:46:46.147Z,70.08
2017-03-31T06:47:40.537Z,69.33
2017-03-31T06:48:40.555Z,68.87
2017-03-31T06:49:35.278Z,68.54
2017-03-31T06:50:30.309Z,68.21
2017-03-31T06:51:24.375Z,68.57
2017-03-31T06:52:18.631Z,68.60
2017-03-31T06:53:13.503Z,68.79
2017-03-31T06:54:07.442Z,68.72
2017-03-31T06:55:08.535Z,68.20
2017-03-31T06:56:03.554Z,68.04
2017-03-31T06:57:03.571Z,67.97
2017-03-31T06:58:03.609Z,67.81
2017-03-31T06:58:57.704Z,67.77
2017-03-31T06:59:57.718Z,67.94
2017-03-31T07:00:52.732Z,67.17
2017-03-31T07:01:47.804Z,66.99
2017-03-31T07:02:42.353Z,66.86
2017-03-31T07:03:42.464Z,66.95
2017-03-31T07:04:37.009Z,66.68
2017-03-31T07:05:31.957Z,66.42
2017-03-31T07:06:31.994Z,66.02
2017-03-31T07:07:27.100Z,65.34
2017-03-31T07:08:22.131Z,64.85
2017-03-31T07:09:16.091Z,64.58
2017-03-31T07:10:16.183Z,64.67
2017-03-31T07:11:11.515Z,64.38
2017-03-31T07:12:05.268Z,64.03
2017-03-31T07:13:00.284Z,64.53
2017-03-31T07:13:54.368Z,64.13
2017-03-31T07:14:49.369Z,64.62
2017-03-31T07:15:38.452Z,64.21
2017-03-31T07:16:33.486Z,64.19
2017-03-31T07:17:33.538Z,64.41
2017-03-31T07:18:28.568Z,63.64
2017-03-31T07:19:28.598Z,63.54
2017-03-31T07:20:22.676Z,63.37
2017-03-31T07:21:11.976Z,63.89
2017-03-31T07:22:06.806Z,63.77
2017-03-31T07:23:06.780Z,63.52
2017-03-31T07:24:01.830Z,64.19
2017-03-31T07:24:55.903Z,63.11
2017-03-31T07:25:55.975Z,62.54
2017-03-31T07:26:49.962Z,63.33
2017-03-31T07:27:49.947Z,62.75
2017-03-31T07:28:45.326Z,62.32
2017-03-31T07:29:40.067Z,62.18
2017-03-31T07:30:40.128Z,62.30
2017-03-31T07:31:34.182Z,61.42
2017-03-31T07:32:35.507Z,60.80
2017-03-31T07:33:29.313Z,60.53
2017-03-31T07:34:23.325Z,60.43
2017-03-31T07:35:23.378Z,59.94
2017-03-31T07:36:18.988Z,60.42
2017-03-31T07:37:13.473Z,60.32
2017-03-31T07:38:13.767Z,60.69
2017-03-31T07:39:07.569Z,59.82
2017-03-31T07:40:08.610Z,59.87
2017-03-31T07:40:57.683Z,60.38
2017-03-31T07:41:52.700Z,60.37
2017-03-31T07:42:53.733Z,60.40
2017-03-31T07:43:53.872Z,60.11
2017-03-31T07:44:49.221Z,60.53
2017-03-31T07:45:49.268Z,60.01
2017-03-31T07:46:42.891Z,60.23
2017-03-31T07:47:42.972Z,60.05
2017-03-31T07:48:38.013Z,59.75
2017-03-31T07:49:32.143Z,59.74
2017-03-31T07:50:33.115Z,61.01
2017-03-31T07:51:33.146Z,60.23
2017-03-31T07:52:27.187Z,59.30
2017-03-31T07:53:27.227Z,58.32
2017-03-31T07:54:22.696Z,59.06
2017-03-31T07:55:10.395Z,59.47
2017-03-31T07:56:11.414Z,57.24
2017-03-31T07:57:11.425Z,58.34
2017-03-31T07:58:05.511Z,57.86
2017-03-31T07:58:54.632Z,58.59
2017-03-31T07:59:43.605Z,56.25
2017-03-31T08:00:37.784Z,55.74
2017-03-31T08:01:37.733Z,55.26
2017-03-31T08:02:31.797Z,56.76
2017-03-31T08:03:26.813Z,55.83
2017-03-31T08:04:26.789Z,55.91
2017-03-31T08:05:14.856Z,55.41
2017-03-31T08:06:08.946Z,55.37
2017-03-31T08:07:03.072Z,53.28
2017-03-31T08:07:57.025Z,53.06
2017-03-31T08:08:52.253Z,53.19
2017-03-31T08:09:41.098Z,54.44
2017-03-31T08:10:35.222Z,53.85
2017-03-31T08:11:24.858Z,54.81
2017-03-31T08:12:18.261Z,56.05
2017-03-31T08:13:12.359Z,52.71
2017-03-31T08:14:06.387Z,53.30
2017-03-31T08:14:55.729Z,53.61
2017-03-31T08:15:49.515Z,53.19
2017-03-31T08:16:39.165Z,53.71
2017-03-31T08:17:27.797Z,54.67
2017-03-31T08:18:21.673Z,52.95
2017-03-31T08:19:21.701Z,52.23
2017-03-31T08:20:09.796Z,52.62
2017-03-31T08:21:04.756Z,50.14
2017-03-31T08:21:59.223Z,49.10
2017-03-31T08:22:47.923Z,52.33
2017-03-31T08:23:41.990Z,49.09
2017-03-31T08:24:42.194Z,49.63
2017-03-31T08:25:37.132Z,49.36
2017-03-31T08:26:37.198Z,49.83
2017-03-31T08:27:26.904Z,48.29
2017-03-31T08:28:26.724Z,49.61
2017-03-31T08:29:20.435Z,48.41
2017-03-31T08:30:15.452Z,47.26
2017-03-31T08:31:04.503Z,46.93
2017-03-31T08:32:00.114Z,47.93
2017-03-31T08:32:54.790Z,47.86
2017-03-31T08:33:54.716Z,48.29
2017-03-31T08:34:54.805Z,47.16
2017-03-31T08:35:43.845Z,46.85
2017-03-31T08:36:37.900Z,48.10
2017-03-31T08:37:37.967Z,49.94
2017-03-31T08:38:33.099Z,48.97
2017-03-31T08:39:28.236Z,48.89
2017-03-31T08:40:22.483Z,50.06
2017-03-31T08:41:11.213Z,50.08
2017-03-31T08:42:05.178Z,49.00
2017-03-31T08:42:53.330Z,51.18
2017-03-31T08:43:41.398Z,47.74
2017-03-31T08:44:35.437Z,46.42
2017-03-31T08:45:30.898Z,46.91
2017-03-31T08:46:19.615Z,51.46
2017-03-31T08:47:13.694Z,47.11
2017-03-31T08:48:03.136Z,44.51
2017-03-31T08:48:52.305Z,45.81
2017-03-31T08:49:46.910Z,47.70
2017-03-31T08:50:46.999Z,47.35
2017-03-31T08:51:36.088Z,47.23
2017-03-31T08:52:30.200Z,47.62
2017-03-31T08:53:30.215Z,48.62
2017-03-31T08:54:24.579Z,46.25
2017-03-31T08:55:12.367Z,46.41
2017-03-31T08:56:06.375Z,48.01
2017-03-31T08:57:00.492Z,49.56
2017-03-31T08:57:54.535Z,48.61
2017-03-31T08:58:48.580Z,49.32
2017-03-31T08:59:48.910Z,48.31
2017-03-31T09:00:42.673Z,49.15
2017-03-31T09:01:42.730Z,48.24
2017-03-31T09:02:30.830Z,48.93
2017-03-31T09:03:30.908Z,49.54
2017-03-31T09:04:25.892Z,51.55
2017-03-31T09:05:20.086Z,50.55
2017-03-31T09:06:15.027Z,50.78
2017-03-31T09:07:09.396Z,52.68
2017-03-31T09:07:57.179Z,49.36
2017-03-31T09:08:46.199Z,50.72
2017-03-31T09:09:46.251Z,50.10
2017-03-31T09:10:34.606Z,51.03
2017-03-31T09:11:22.372Z,50.05
2017-03-31T09:12:11.739Z,49.84
2017-03-31T09:13:00.508Z,49.01
2017-03-31T09:13:49.736Z,50.90
2017-03-31T09:14:44.069Z,48.81
2017-03-31T09:15:38.029Z,50.21
2017-03-31T09:16:32.764Z,50.23
2017-03-31T09:17:21.829Z,49.85
2017-03-31T09:18:15.900Z,50.19
2017-03-31T09:19:15.950Z,49.48
2017-03-31T09:20:11.010Z,47.01
2017-03-31T09:21:00.213Z,47.88
2017-03-31T09:21:48.179Z,49.65
2017-03-31T09:22:42.262Z,46.91
2017-03-31T09:23:42.281Z,44.35
2017-03-31T09:24:31.413Z,44.93
2017-03-31T09:25:25.514Z,46.37
2017-03-31T09:26:13.602Z,46.34
2017-03-31T09:27:09.008Z,43.85
2017-03-31T09:28:02.684Z,48.41
2017-03-31T09:28:57.805Z,48.14
2017-03-31T09:29:51.879Z,47.84
2017-03-31T09:30:46.995Z,46.60
2017-03-31T09:31:48.340Z,45.95
2017-03-31T09:32:42.460Z,47.28
2017-03-31T09:33:37.184Z,48.39
2017-03-31T09:34:32.238Z,46.06
2017-03-31T09:35:21.367Z,43.62
2017-03-31T09:36:16.377Z,45.59
2017-03-31T09:37:16.476Z,45.42
2017-03-31T09:38:10.941Z,47.19
2017-03-31T09:38:59.638Z,48.18
2017-03-31T09:39:54.680Z,48.49
2017-03-31T09:40:43.843Z,46.35
2017-03-31T09:41:44.751Z,45.18
2017-03-31T09:42:40.495Z,46.37
2017-03-31T09:43:33.953Z,46.71
2017-03-31T09:44:23.334Z,46.35
2017-03-31T09:45:17.026Z,45.73
2017-03-31T09:46:12.510Z,45.53
2017-03-31T09:47:12.519Z,45.21
2017-03-31T09:48:06.496Z,44.58
2017-03-31T09:49:01.291Z,46.19
2017-03-31T09:50:01.368Z,46.03
2017-03-31T09:50:56.487Z,48.07
2017-03-31T09:51:56.482Z,45.72
2017-03-31T09:52:51.016Z,45.33
2017-03-31T09:53:51.012Z,46.98
2017-03-31T09:54:38.670Z,48.05
2017-03-31T09:55:26.717Z,44.87
2017-03-31T09:56:26.796Z,46.84
2017-03-31T09:57:20.803Z,47.97
2017-03-31T09:58:15.281Z,46.14
2017-03-31T09:59:09.931Z,46.54
2017-03-31T09:59:58.980Z,49.22
2017-03-31T10:00:53.040Z,49.62
2017-03-31T10:01:54.072Z,46.32
2017-03-31T10:02:49.488Z,46.34
2017-03-31T10:03:44.618Z,45.02
2017-03-31T10:04:33.300Z,44.93
2017-03-31T10:05:22.320Z,44.94
2017-03-31T10:06:16.776Z,46.31
2017-03-31T10:07:11.539Z,45.56
2017-03-31T10:08:06.549Z,47.32
2017-03-31T10:08:55.589Z,47.43
2017-03-31T10:09:50.422Z,49.02
2017-03-31T10:10:43.771Z,43.87
2017-03-31T10:11:37.806Z,44.45
2017-03-31T10:12:32.897Z,46.98
2017-03-31T10:13:22.260Z,46.97
2017-03-31T10:14:16.125Z,43.37
2017-03-31T10:15:04.387Z,43.51
2017-03-31T10:15:52.464Z,43.60
2017-03-31T10:16:46.247Z,44.45
2017-03-31T10:17:46.341Z,44.56
2017-03-31T10:18:35.372Z,44.24
2017-03-31T10:19:35.471Z,43.66
2017-03-31T10:20:30.814Z,43.38
2017-03-31T10:21:30.603Z,44.08
2017-03-31T10:22:25.004Z,44.91
2017-03-31T10:23:25.076Z,45.93
2017-03-31T10:24:25.122Z,44.04
2017-03-31T10:25:19.271Z,44.52
2017-03-31T10:26:13.303Z,45.57
2017-03-31T10:27:07.939Z,48.33
2017-03-31T10:28:02.996Z,47.92
2017-03-31T10:28:57.597Z,47.83
2017-03-31T10:29:51.498Z,46.95
2017-03-31T10:30:46.187Z,50.40
2017-03-31T10:31:40.255Z,48.13
2017-03-31T10:32:28.646Z,47.36
2017-03-31T10:33:28.314Z,48.64
2017-03-31T10:34:23.834Z,45.82
2017-03-31T10:35:23.724Z,45.63
2017-03-31T10:36:12.544Z,48.20
2017-03-31T10:37:12.626Z,49.05
2017-03-31T10:38:07.684Z,47.36
2017-03-31T10:38:57.055Z,48.48
2017-03-31T10:39:50.785Z,46.70
2017-03-31T10:40:45.950Z,45.75
2017-03-31T10:41:39.914Z,46.11
2017-03-31T10:42:29.202Z,43.14
2017-03-31T10:43:23.419Z,47.35
2017-03-31T10:44:23.492Z,45.08
2017-03-31T10:45:23.593Z,45.04
2017-03-31T10:46:12.293Z,44.31
2017-03-31T10:47:06.327Z,47.12
2017-03-31T10:48:01.394Z,45.14
2017-03-31T10:48:55.855Z,43.40
2017-03-31T10:49:50.577Z,42.88
2017-03-31T10:50:44.641Z,46.13
2017-03-31T10:51:38.720Z,44.30
2017-03-31T10:52:27.309Z,44.25
2017-03-31T10:53:27.158Z,44.51
2017-03-31T10:54:16.139Z,45.47
2017-03-31T10:55:05.017Z,45.32
2017-03-31T10:56:00.004Z,46.40
2017-03-31T10:57:01.049Z,44.33
2017-03-31T10:57:55.569Z,44.12
2017-03-31T10:58:43.571Z,45.43
2017-03-31T10:59:37.350Z,45.53
2017-03-31T11:00:31.301Z,44.88
2017-03-31T11:01:19.423Z,44.82
2017-03-31T11:02:13.501Z,46.71
2017-03-31T11:03:01.479Z,50.66
2017-03-31T11:03:56.158Z,47.17
2017-03-31T11:04:50.669Z,46.26
2017-03-31T11:05:44.709Z,46.06
2017-03-31T11:06:33.896Z,47.90
2017-03-31T11:07:29.236Z,46.39
2017-03-31T11:08:24.264Z,48.31
2017-03-31T11:09:19.244Z,47.40
2017-03-31T11:10:07.988Z,44.96
2017-03-31T11:11:03.451Z,45.59
2017-03-31T11:12:03.111Z,46.26
2017-03-31T11:13:03.215Z,47.10
2017-03-31T11:13:57.444Z,46.77
2017-03-31T11:14:46.452Z,47.01
2017-03-31T11:15:46.528Z,46.06
2017-03-31T11:16:46.473Z,44.81
2017-03-31T11:17:40.499Z,45.04
2017-03-31T11:18:34.554Z,45.19
2017-03-31T11:19:35.603Z,46.27
2017-03-31T11:20:30.116Z,46.04
2017-03-31T11:21:23.757Z,47.00
2017-03-31T11:22:17.788Z,47.08
2017-03-31T11:23:11.891Z,44.58
2017-03-31T11:24:05.926Z,46.22
2017-03-31T11:24:53.961Z,46.06
2017-03-31T11:25:54.112Z,47.55
2017-03-31T11:26:43.091Z,46.15
2017-03-31T11:27:44.211Z,45.96
2017-03-31T11:28:44.270Z,44.64
2017-03-31T11:29:44.312Z,44.53
2017-03-31T11:30:44.306Z,43.22
2017-03-31T11:31:33.845Z,46.40
2017-03-31T11:32:28.503Z,44.82
2017-03-31T11:33:17.577Z,44.39
2017-03-31T11:34:06.962Z,44.81
2017-03-31T11:35:00.749Z,41.29
2017-03-31T11:35:54.820Z,42.90
2017-03-31T11:36:42.928Z,41.26
2017-03-31T11:37:37.198Z,41.41
2017-03-31T11:38:32.057Z,45.18